sensor_id;sensor_type;location;lat;lon;timestamp;temperature;humidity
38854;DHT22;24606;51.992;4.198;2022-12-07T00:03:58;17.00;60.00
38854;DHT22;24606;51.992;4.198;2022-12-07T00:09:09;17.00;60.00
38854;DHT22;24606;51.992;4.198;2022-12-07T00:14:13;17.00;60.00
38854;DHT22;24606;51.992;4.198;2022-12-07T00:19:16;17.00;60.10
38854;DHT22;24606;51.992;4.198;2022-12-07T00:24:18;16.80;59.50
38854;DHT22;24606;51.992;4.198;2022-12-07T00:29:21;16.20;59.70
38854;DHT22;24606;51.992;4.198;2022-12-07T00:34:25;16.60;61.30
38854;DHT22;24606;51.992;4.198;2022-12-07T00:39:27;16.50;61.60
38854;DHT22;24606;51.992;4.198;2022-12-07T00:44:29;16.50;61.60
38854;DHT22;24606;51.992;4.198;2022-12-07T00:49:32;16.20;62.60
38854;DHT22;24606;51.992;4.198;2022-12-07T00:54:34;16.70;60.80
38854;DHT22;24606;51.992;4.198;2022-12-07T00:59:36;16.80;60.20
38854;DHT22;24606;51.992;4.198;2022-12-07T01:04:39;16.60;60.50
38854;DHT22;24606;51.992;4.198;2022-12-07T01:09:41;16.20;61.60
38854;DHT22;24606;51.992;4.198;2022-12-07T01:14:43;16.20;59.10
38854;DHT22;24606;51.992;4.198;2022-12-07T01:19:46;14.00;66.20
38854;DHT22;24606;51.992;4.198;2022-12-07T01:24:48;15.40;66.50
38854;DHT22;24606;51.992;4.198;2022-12-07T01:29:51;16.40;61.50
38854;DHT22;24606;51.992;4.198;2022-12-07T01:34:54;15.60;60.50
38854;DHT22;24606;51.992;4.198;2022-12-07T01:39:56;15.50;64.50
38854;DHT22;24606;51.992;4.198;2022-12-07T01:50:48;16.00;62.00
38854;DHT22;24606;51.992;4.198;2022-12-07T01:55:52;13.90;71.70
38854;DHT22;24606;51.992;4.198;2022-12-07T02:00:54;15.60;65.40
38854;DHT22;24606;51.992;4.198;2022-12-07T02:05:58;16.10;62.50
38854;DHT22;24606;51.992;4.198;2022-12-07T02:11:01;16.40;60.90
38854;DHT22;24606;51.992;4.198;2022-12-07T02:16:12;16.10;62.10
38854;DHT22;24606;51.992;4.198;2022-12-07T02:21:23;16.40;60.40
38854;DHT22;24606;51.992;4.198;2022-12-07T02:27:04;16.40;60.00
38854;DHT22;24606;51.992;4.198;2022-12-07T02:32:13;16.00;62.10
38854;DHT22;24606;51.992;4.198;2022-12-07T02:37:32;16.40;60.50
38854;DHT22;24606;51.992;4.198;2022-12-07T02:42:41;15.90;61.70
38854;DHT22;24606;51.992;4.198;2022-12-07T02:47:50;16.50;59.90
38854;DHT22;24606;51.992;4.198;2022-12-07T02:52:53;13.50;66.20
38854;DHT22;24606;51.992;4.198;2022-12-07T02:58:06;14.20;68.00
38854;DHT22;24606;51.992;4.198;2022-12-07T03:03:14;15.40;64.90
38854;DHT22;24606;51.992;4.198;2022-12-07T03:08:23;16.00;59.10
38854;DHT22;24606;51.992;4.198;2022-12-07T03:13:31;16.10;61.50
38854;DHT22;24606;51.992;4.198;2022-12-07T03:18:39;16.40;60.20
38854;DHT22;24606;51.992;4.198;2022-12-07T03:23:46;16.10;60.80
38854;DHT22;24606;51.992;4.198;2022-12-07T03:28:52;14.90;64.50
38854;DHT22;24606;51.992;4.198;2022-12-07T03:33:59;14.90;65.40
38854;DHT22;24606;51.992;4.198;2022-12-07T03:39:11;14.60;68.90
38854;DHT22;24606;51.992;4.198;2022-12-07T03:44:15;14.40;68.70
38854;DHT22;24606;51.992;4.198;2022-12-07T03:49:20;15.60;63.40
38854;DHT22;24606;51.992;4.198;2022-12-07T03:54:28;16.30;60.40
38854;DHT22;24606;51.992;4.198;2022-12-07T03:59:31;16.40;59.80
38854;DHT22;24606;51.992;4.198;2022-12-07T04:04:35;15.60;59.60
38854;DHT22;24606;51.992;4.198;2022-12-07T04:09:37;15.30;58.70
38854;DHT22;24606;51.992;4.198;2022-12-07T04:14:39;15.30;64.30
38854;DHT22;24606;51.992;4.198;2022-12-07T04:19:42;13.70;69.00
38854;DHT22;24606;51.992;4.198;2022-12-07T04:24:44;15.50;61.00
38854;DHT22;24606;51.992;4.198;2022-12-07T04:29:46;16.00;60.50
38854;DHT22;24606;51.992;4.198;2022-12-07T04:34:49;16.20;60.10
38854;DHT22;24606;51.992;4.198;2022-12-07T04:39:51;16.30;59.50
38854;DHT22;24606;51.992;4.198;2022-12-07T04:44:53;16.10;59.90
38854;DHT22;24606;51.992;4.198;2022-12-07T04:49:57;15.80;61.80
38854;DHT22;24606;51.992;4.198;2022-12-07T04:54:58;15.70;56.50
38854;DHT22;24606;51.992;4.198;2022-12-07T05:00:00;10.90;60.60
38854;DHT22;24606;51.992;4.198;2022-12-07T05:05:04;12.80;76.20
38854;DHT22;24606;51.992;4.198;2022-12-07T05:10:07;14.00;64.20
38854;DHT22;24606;51.992;4.198;2022-12-07T05:15:09;13.80;66.60
38854;DHT22;24606;51.992;4.198;2022-12-07T05:20:12;14.10;57.50
38854;DHT22;24606;51.992;4.198;2022-12-07T05:25:14;14.10;61.70
38854;DHT22;24606;51.992;4.198;2022-12-07T05:30:16;12.00;68.40
38854;DHT22;24606;51.992;4.198;2022-12-07T05:35:20;12.70;77.00
38854;DHT22;24606;51.992;4.198;2022-12-07T05:40:24;11.50;75.90
38854;DHT22;24606;51.992;4.198;2022-12-07T05:45:25;11.90;82.40
38854;DHT22;24606;51.992;4.198;2022-12-07T05:50:29;13.50;71.50
38854;DHT22;24606;51.992;4.198;2022-12-07T05:55:30;14.70;66.10
38854;DHT22;24606;51.992;4.198;2022-12-07T06:00:32;14.30;69.80
38854;DHT22;24606;51.992;4.198;2022-12-07T06:05:35;14.30;65.50
38854;DHT22;24606;51.992;4.198;2022-12-07T06:10:37;14.90;64.60
38854;DHT22;24606;51.992;4.198;2022-12-07T06:15:39;14.20;61.40
38854;DHT22;24606;51.992;4.198;2022-12-07T06:20:43;14.10;69.10
38854;DHT22;24606;51.992;4.198;2022-12-07T06:25:45;14.20;70.10
38854;DHT22;24606;51.992;4.198;2022-12-07T06:30:47;13.40;59.10
38854;DHT22;24606;51.992;4.198;2022-12-07T06:35:50;14.20;66.20
38854;DHT22;24606;51.992;4.198;2022-12-07T06:40:52;13.30;71.10
38854;DHT22;24606;51.992;4.198;2022-12-07T06:45:54;14.90;66.40
38854;DHT22;24606;51.992;4.198;2022-12-07T06:50:57;15.90;62.40
38854;DHT22;24606;51.992;4.198;2022-12-07T06:55:59;15.50;63.70
38854;DHT22;24606;51.992;4.198;2022-12-07T07:01:01;15.40;63.50
38854;DHT22;24606;51.992;4.198;2022-12-07T07:15:30;14.70;58.70
38854;DHT22;24606;51.992;4.198;2022-12-07T07:20:32;14.60;63.80
38854;DHT22;24606;51.992;4.198;2022-12-07T07:25:34;14.60;67.50
38854;DHT22;24606;51.992;4.198;2022-12-07T07:30:38;13.10;72.60
38854;DHT22;24606;51.992;4.198;2022-12-07T07:35:39;13.90;68.00
38854;DHT22;24606;51.992;4.198;2022-12-07T07:40:41;15.50;61.20
38854;DHT22;24606;51.992;4.198;2022-12-07T07:45:45;14.80;66.10
38854;DHT22;24606;51.992;4.198;2022-12-07T07:50:46;16.10;61.20
38854;DHT22;24606;51.992;4.198;2022-12-07T07:55:51;15.90;61.80
38854;DHT22;24606;51.992;4.198;2022-12-07T08:00:55;16.10;61.30
38854;DHT22;24606;51.992;4.198;2022-12-07T08:05:57;16.10;60.70
38854;DHT22;24606;51.992;4.198;2022-12-07T08:10:59;15.30;64.30
38854;DHT22;24606;51.992;4.198;2022-12-07T08:16:05;16.30;60.40
38854;DHT22;24606;51.992;4.198;2022-12-07T08:21:10;16.10;60.90
38854;DHT22;24606;51.992;4.198;2022-12-07T08:26:15;15.70;61.90
38854;DHT22;24606;51.992;4.198;2022-12-07T08:31:19;15.00;65.00
38854;DHT22;24606;51.992;4.198;2022-12-07T08:36:21;15.90;62.20
38854;DHT22;24606;51.992;4.198;2022-12-07T08:41:23;16.00;61.40
38854;DHT22;24606;51.992;4.198;2022-12-07T08:46:29;15.90;61.20
38854;DHT22;24606;51.992;4.198;2022-12-07T08:51:33;16.20;60.70
38854;DHT22;24606;51.992;4.198;2022-12-07T08:56:35;16.00;57.70
38854;DHT22;24606;51.992;4.198;2022-12-07T09:01:39;16.00;61.70
38854;DHT22;24606;51.992;4.198;2022-12-07T09:06:41;14.10;70.20
38854;DHT22;24606;51.992;4.198;2022-12-07T09:11:44;15.20;64.50
38854;DHT22;24606;51.992;4.198;2022-12-07T09:16:47;15.90;61.90
38854;DHT22;24606;51.992;4.198;2022-12-07T09:21:49;16.20;60.40
38854;DHT22;24606;51.992;4.198;2022-12-07T09:26:51;16.50;59.80
38854;DHT22;24606;51.992;4.198;2022-12-07T09:31:54;16.30;60.20
38854;DHT22;24606;51.992;4.198;2022-12-07T09:36:56;16.50;59.50
38854;DHT22;24606;51.992;4.198;2022-12-07T09:41:59;16.60;59.40
38854;DHT22;24606;51.992;4.198;2022-12-07T09:47:02;16.50;60.00
38854;DHT22;24606;51.992;4.198;2022-12-07T09:52:19;16.40;59.70
38854;DHT22;24606;51.992;4.198;2022-12-07T09:57:27;16.30;60.80
38854;DHT22;24606;51.992;4.198;2022-12-07T10:02:36;16.10;59.90
38854;DHT22;24606;51.992;4.198;2022-12-07T10:07:38;16.60;59.50
38854;DHT22;24606;51.992;4.198;2022-12-07T10:12:54;15.60;56.90
38854;DHT22;24606;51.992;4.198;2022-12-07T10:17:57;16.00;61.50
38854;DHT22;24606;51.992;4.198;2022-12-07T10:23:02;16.20;60.20
38854;DHT22;24606;51.992;4.198;2022-12-07T10:28:13;15.60;61.20
38854;DHT22;24606;51.992;4.198;2022-12-07T10:33:30;15.90;59.60
38854;DHT22;24606;51.992;4.198;2022-12-07T10:38:32;16.00;60.70
38854;DHT22;24606;51.992;4.198;2022-12-07T10:43:34;15.20;62.70
38854;DHT22;24606;51.992;4.198;2022-12-07T10:48:42;15.60;62.90
38854;DHT22;24606;51.992;4.198;2022-12-07T10:53:57;15.00;63.10
38854;DHT22;24606;51.992;4.198;2022-12-07T10:59:14;16.10;60.20
38854;DHT22;24606;51.992;4.198;2022-12-07T11:04:28;15.90;61.30
38854;DHT22;24606;51.992;4.198;2022-12-07T11:09:50;14.70;60.90
38854;DHT22;24606;51.992;4.198;2022-12-07T11:14:58;11.70;73.90
38854;DHT22;24606;51.992;4.198;2022-12-07T11:20:14;12.50;60.80
38854;DHT22;24606;51.992;4.198;2022-12-07T11:25:24;14.30;69.40
38854;DHT22;24606;51.992;4.198;2022-12-07T11:30:35;14.50;68.80
38854;DHT22;24606;51.992;4.198;2022-12-07T11:35:48;16.30;60.90
38854;DHT22;24606;51.992;4.198;2022-12-07T11:41:00;16.20;59.90
38854;DHT22;24606;51.992;4.198;2022-12-07T11:46:15;15.90;60.60
38854;DHT22;24606;51.992;4.198;2022-12-07T11:51:21;12.60;69.30
38854;DHT22;24606;51.992;4.198;2022-12-07T11:56:26;12.80;69.90
38854;DHT22;24606;51.992;4.198;2022-12-07T12:01:42;15.60;65.30
38854;DHT22;24606;51.992;4.198;2022-12-07T12:06:48;14.60;62.40
38854;DHT22;24606;51.992;4.198;2022-12-07T12:12:07;13.00;77.40
38854;DHT22;24606;51.992;4.198;2022-12-07T12:17:34;15.70;64.80
38854;DHT22;24606;51.992;4.198;2022-12-07T12:22:43;16.10;59.50
38854;DHT22;24606;51.992;4.198;2022-12-07T12:27:47;15.90;61.50
38854;DHT22;24606;51.992;4.198;2022-12-07T12:32:50;16.80;60.80
38854;DHT22;24606;51.992;4.198;2022-12-07T12:37:54;17.30;59.40
38854;DHT22;24606;51.992;4.198;2022-12-07T12:42:57;17.40;59.40
38854;DHT22;24606;51.992;4.198;2022-12-07T12:47:59;15.80;57.10
38854;DHT22;24606;51.992;4.198;2022-12-07T12:53:14;13.90;62.70
38854;DHT22;24606;51.992;4.198;2022-12-07T12:58:34;16.70;61.90
38854;DHT22;24606;51.992;4.198;2022-12-07T13:03:36;17.40;59.30
38854;DHT22;24606;51.992;4.198;2022-12-07T13:08:41;17.50;58.10
38854;DHT22;24606;51.992;4.198;2022-12-07T13:13:43;17.50;58.20
38854;DHT22;24606;51.992;4.198;2022-12-07T13:18:45;17.40;58.50
38854;DHT22;24606;51.992;4.198;2022-12-07T13:23:55;16.40;62.60
38854;DHT22;24606;51.992;4.198;2022-12-07T13:29:09;16.00;52.30
38854;DHT22;24606;51.992;4.198;2022-12-07T13:34:29;17.20;59.00
38854;DHT22;24606;51.992;4.198;2022-12-07T13:39:35;17.40;58.30
38854;DHT22;24606;51.992;4.198;2022-12-07T13:44:45;17.70;57.70
38854;DHT22;24606;51.992;4.198;2022-12-07T13:49:49;17.00;60.00
38854;DHT22;24606;51.992;4.198;2022-12-07T13:54:58;17.60;57.70
38854;DHT22;24606;51.992;4.198;2022-12-07T14:00:01;17.50;57.90
38854;DHT22;24606;51.992;4.198;2022-12-07T14:05:09;12.20;75.80
38854;DHT22;24606;51.992;4.198;2022-12-07T14:10:25;15.40;69.10
38854;DHT22;24606;51.992;4.198;2022-12-07T14:15:30;17.20;59.50
38854;DHT22;24606;51.992;4.198;2022-12-07T14:20:34;17.50;58.20
38854;DHT22;24606;51.992;4.198;2022-12-07T14:25:46;17.60;57.70
38854;DHT22;24606;51.992;4.198;2022-12-07T14:30:49;17.60;57.80
38854;DHT22;24606;51.992;4.198;2022-12-07T14:35:51;17.20;57.90
38854;DHT22;24606;51.992;4.198;2022-12-07T14:40:57;17.70;57.20
38854;DHT22;24606;51.992;4.198;2022-12-07T14:46:20;17.80;56.90
38854;DHT22;24606;51.992;4.198;2022-12-07T14:51:22;17.80;56.70
38854;DHT22;24606;51.992;4.198;2022-12-07T14:56:25;17.60;57.10
38854;DHT22;24606;51.992;4.198;2022-12-07T15:01:28;17.20;57.90
38854;DHT22;24606;51.992;4.198;2022-12-07T15:06:30;17.30;58.00
38854;DHT22;24606;51.992;4.198;2022-12-07T15:11:33;17.70;56.90
38854;DHT22;24606;51.992;4.198;2022-12-07T15:16:36;15.80;62.00
38854;DHT22;24606;51.992;4.198;2022-12-07T15:21:38;17.20;58.70
38854;DHT22;24606;51.992;4.198;2022-12-07T15:26:41;17.30;58.10
38854;DHT22;24606;51.992;4.198;2022-12-07T15:31:43;16.10;53.80
38854;DHT22;24606;51.992;4.198;2022-12-07T15:36:45;15.80;62.40
38854;DHT22;24606;51.992;4.198;2022-12-07T15:41:49;15.80;59.40
38854;DHT22;24606;51.992;4.198;2022-12-07T15:46:51;17.10;56.90
38854;DHT22;24606;51.992;4.198;2022-12-07T15:51:53;17.20;58.30
38854;DHT22;24606;51.992;4.198;2022-12-07T15:56:56;17.80;56.50
38854;DHT22;24606;51.992;4.198;2022-12-07T16:01:58;17.70;56.50
38854;DHT22;24606;51.992;4.198;2022-12-07T16:07:00;17.60;55.80
38854;DHT22;24606;51.992;4.198;2022-12-07T16:12:04;17.00;58.20
38854;DHT22;24606;51.992;4.198;2022-12-07T16:17:07;14.70;66.40
38854;DHT22;24606;51.992;4.198;2022-12-07T16:22:09;16.90;57.80
38854;DHT22;24606;51.992;4.198;2022-12-07T16:27:12;17.50;57.60
38854;DHT22;24606;51.992;4.198;2022-12-07T16:32:14;17.70;56.50
38854;DHT22;24606;51.992;4.198;2022-12-07T16:37:16;17.90;56.20
38854;DHT22;24606;51.992;4.198;2022-12-07T16:42:19;17.90;56.50
38854;DHT22;24606;51.992;4.198;2022-12-07T16:47:21;17.90;55.80
38854;DHT22;24606;51.992;4.198;2022-12-07T16:52:23;17.90;55.70
38854;DHT22;24606;51.992;4.198;2022-12-07T16:57:26;18.00;55.70
38854;DHT22;24606;51.992;4.198;2022-12-07T17:02:28;18.00;55.60
38854;DHT22;24606;51.992;4.198;2022-12-07T17:07:30;15.80;62.10
38854;DHT22;24606;51.992;4.198;2022-12-07T17:12:33;15.60;62.60
38854;DHT22;24606;51.992;4.198;2022-12-07T17:17:34;15.00;66.60
38854;DHT22;24606;51.992;4.198;2022-12-07T17:22:36;16.10;59.50
38854;DHT22;24606;51.992;4.198;2022-12-07T17:27:40;14.10;59.30
38854;DHT22;24606;51.992;4.198;2022-12-07T17:32:42;14.30;73.30
38854;DHT22;24606;51.992;4.198;2022-12-07T17:37:44;12.20;71.40
38854;DHT22;24606;51.992;4.198;2022-12-07T17:42:47;13.40;78.40
38854;DHT22;24606;51.992;4.198;2022-12-07T17:47:50;15.10;67.80
38854;DHT22;24606;51.992;4.198;2022-12-07T17:52:53;11.80;76.30
38854;DHT22;24606;51.992;4.198;2022-12-07T17:58:10;13.60;72.00
38854;DHT22;24606;51.992;4.198;2022-12-07T18:03:12;14.50;63.30
38854;DHT22;24606;51.992;4.198;2022-12-07T18:08:14;15.70;65.40
38854;DHT22;24606;51.992;4.198;2022-12-07T18:13:17;16.50;61.80
38854;DHT22;24606;51.992;4.198;2022-12-07T18:18:38;14.80;69.90
38854;DHT22;24606;51.992;4.198;2022-12-07T18:23:40;15.60;65.10
38854;DHT22;24606;51.992;4.198;2022-12-07T18:28:44;15.70;66.50
38854;DHT22;24606;51.992;4.198;2022-12-07T18:33:47;14.50;66.60
38854;DHT22;24606;51.992;4.198;2022-12-07T18:38:49;13.50;80.50
38854;DHT22;24606;51.992;4.198;2022-12-07T18:43:52;14.80;58.00
38854;DHT22;24606;51.992;4.198;2022-12-07T18:48:54;16.40;63.70
38854;DHT22;24606;51.992;4.198;2022-12-07T18:53:57;17.10;60.70
38854;DHT22;24606;51.992;4.198;2022-12-07T18:59:03;17.20;60.00
38854;DHT22;24606;51.992;4.198;2022-12-07T19:04:23;17.20;60.00
38854;DHT22;24606;51.992;4.198;2022-12-07T19:09:25;17.40;59.50
38854;DHT22;24606;51.992;4.198;2022-12-07T19:14:30;17.60;59.10
38854;DHT22;24606;51.992;4.198;2022-12-07T19:19:35;17.80;58.60
38854;DHT22;24606;51.992;4.198;2022-12-07T19:24:37;17.90;58.50
38854;DHT22;24606;51.992;4.198;2022-12-07T19:29:41;14.30;60.10
38854;DHT22;24606;51.992;4.198;2022-12-07T19:34:44;17.60;60.10
38854;DHT22;24606;51.992;4.198;2022-12-07T19:39:47;16.70;59.40
38854;DHT22;24606;51.992;4.198;2022-12-07T19:44:52;17.50;60.50
38854;DHT22;24606;51.992;4.198;2022-12-07T19:49:54;17.90;58.90
38854;DHT22;24606;51.992;4.198;2022-12-07T19:54:56;18.00;58.60
38854;DHT22;24606;51.992;4.198;2022-12-07T19:59:59;18.10;58.40
38854;DHT22;24606;51.992;4.198;2022-12-07T20:05:01;18.20;58.20
38854;DHT22;24606;51.992;4.198;2022-12-07T20:10:04;18.20;58.10
38854;DHT22;24606;51.992;4.198;2022-12-07T20:15:08;18.20;58.00
38854;DHT22;24606;51.992;4.198;2022-12-07T20:20:11;18.30;58.00
38854;DHT22;24606;51.992;4.198;2022-12-07T20:25:12;18.20;57.80
38854;DHT22;24606;51.992;4.198;2022-12-07T20:30:18;15.50;66.30
38854;DHT22;24606;51.992;4.198;2022-12-07T20:35:20;14.40;69.10
38854;DHT22;24606;51.992;4.198;2022-12-07T20:40:22;10.70;94.10
38854;DHT22;24606;51.992;4.198;2022-12-07T20:45:25;11.50;85.80
38854;DHT22;24606;51.992;4.198;2022-12-07T20:50:27;9.10;97.70
38854;DHT22;24606;51.992;4.198;2022-12-07T20:55:29;12.70;92.30
38854;DHT22;24606;51.992;4.198;2022-12-07T21:00:34;15.60;68.10
38854;DHT22;24606;51.992;4.198;2022-12-07T21:05:36;14.20;81.00
38854;DHT22;24606;51.992;4.198;2022-12-07T21:10:38;16.90;63.00
38854;DHT22;24606;51.992;4.198;2022-12-07T21:15:41;17.60;59.60
38854;DHT22;24606;51.992;4.198;2022-12-07T21:20:43;17.70;58.80
38854;DHT22;24606;51.992;4.198;2022-12-07T21:25:45;17.90;58.20
38854;DHT22;24606;51.992;4.198;2022-12-07T21:30:48;18.00;57.70
38854;DHT22;24606;51.992;4.198;2022-12-07T21:35:50;18.00;57.40
38854;DHT22;24606;51.992;4.198;2022-12-07T21:40:52;18.10;57.30
38854;DHT22;24606;51.992;4.198;2022-12-07T21:45:55;18.00;57.30
38854;DHT22;24606;51.992;4.198;2022-12-07T21:51:03;18.10;57.20
38854;DHT22;24606;51.992;4.198;2022-12-07T21:56:12;18.00;57.20
38854;DHT22;24606;51.992;4.198;2022-12-07T22:01:17;18.00;57.10
38854;DHT22;24606;51.992;4.198;2022-12-07T22:06:21;17.90;57.10
38854;DHT22;24606;51.992;4.198;2022-12-07T22:11:23;17.90;57.00
38854;DHT22;24606;51.992;4.198;2022-12-07T22:16:27;18.00;56.90
38854;DHT22;24606;51.992;4.198;2022-12-07T22:21:30;18.00;57.40
38854;DHT22;24606;51.992;4.198;2022-12-07T22:26:32;18.00;56.70
38854;DHT22;24606;51.992;4.198;2022-12-07T22:31:35;17.90;56.70
38854;DHT22;24606;51.992;4.198;2022-12-07T22:36:40;17.90;56.70
38854;DHT22;24606;51.992;4.198;2022-12-07T22:41:42;17.70;57.10
38854;DHT22;24606;51.992;4.198;2022-12-07T22:46:45;17.60;57.00
38854;DHT22;24606;51.992;4.198;2022-12-07T22:51:47;17.90;56.60
38854;DHT22;24606;51.992;4.198;2022-12-07T22:56:49;17.90;56.40
38854;DHT22;24606;51.992;4.198;2022-12-07T23:01:52;17.90;56.40
38854;DHT22;24606;51.992;4.198;2022-12-07T23:06:56;17.90;56.40
38854;DHT22;24606;51.992;4.198;2022-12-07T23:11:58;17.80;56.20
38854;DHT22;24606;51.992;4.198;2022-12-07T23:17:19;17.80;56.20
38854;DHT22;24606;51.992;4.198;2022-12-07T23:22:21;17.90;56.20
38854;DHT22;24606;51.992;4.198;2022-12-07T23:27:23;17.70;55.60
38854;DHT22;24606;51.992;4.198;2022-12-07T23:32:26;17.70;56.30
38854;DHT22;24606;51.992;4.198;2022-12-07T23:37:28;17.60;56.20
38854;DHT22;24606;51.992;4.198;2022-12-07T23:42:31;17.50;56.30
38854;DHT22;24606;51.992;4.198;2022-12-07T23:47:34;16.70;58.70
38854;DHT22;24606;51.992;4.198;2022-12-07T23:52:36;15.40;59.50
38854;DHT22;24606;51.992;4.198;2022-12-07T23:57:38;15.80;63.10
